sensor_id;sensor_type;location;lat;lon;timestamp;P1;durP1;ratioP1;P2;durP2;ratioP2
82242;SDS011;71844;51.528;4.442;2023-08-17T00:57:24;2.55;;;0.85;;
82242;SDS011;71844;51.528;4.442;2023-08-17T00:59:52;1.80;;;0.90;;
82242;SDS011;71844;51.528;4.442;2023-08-17T01:02:31;1.48;;;0.85;;
82242;SDS011;71844;51.528;4.442;2023-08-17T01:04:59;2.03;;;0.90;;
82242;SDS011;71844;51.528;4.442;2023-08-17T01:07:27;2.75;;;0.80;;
82242;SDS011;71844;51.528;4.442;2023-08-17T01:09:54;1.95;;;1.08;;
82242;SDS011;71844;51.528;4.442;2023-08-17T01:12:27;1.60;;;1.00;;
82242;SDS011;71844;51.528;4.442;2023-08-17T01:20:10;2.05;;;1.10;;
82242;SDS011;71844;51.528;4.442;2023-08-17T01:25:07;2.25;;;0.75;;
82242;SDS011;71844;51.528;4.442;2023-08-17T01:27:42;3.88;;;0.88;;
82242;SDS011;71844;51.528;4.442;2023-08-17T01:30:11;1.33;;;0.80;;
82242;SDS011;71844;51.528;4.442;2023-08-17T01:32:46;3.33;;;0.82;;
82242;SDS011;71844;51.528;4.442;2023-08-17T01:37:55;1.95;;;0.73;;
82242;SDS011;71844;51.528;4.442;2023-08-17T01:40:31;1.40;;;0.80;;
82242;SDS011;71844;51.528;4.442;2023-08-17T01:45:27;1.10;;;0.75;;
82242;SDS011;71844;51.528;4.442;2023-08-17T01:47:54;1.63;;;0.73;;
82242;SDS011;71844;51.528;4.442;2023-08-17T01:50:21;1.90;;;1.08;;
82242;SDS011;71844;51.528;4.442;2023-08-17T01:52:48;2.28;;;0.75;;
82242;SDS011;71844;51.528;4.442;2023-08-17T01:55:17;4.05;;;0.95;;
82242;SDS011;71844;51.528;4.442;2023-08-17T01:57:47;3.30;;;0.90;;
82242;SDS011;71844;51.528;4.442;2023-08-17T02:00:14;3.28;;;0.75;;
82242;SDS011;71844;51.528;4.442;2023-08-17T02:02:41;2.15;;;0.95;;
82242;SDS011;71844;51.528;4.442;2023-08-17T02:05:09;1.77;;;0.40;;
82242;SDS011;71844;51.528;4.442;2023-08-17T02:07:36;1.70;;;0.80;;
82242;SDS011;71844;51.528;4.442;2023-08-17T02:10:03;1.83;;;0.75;;
82242;SDS011;71844;51.528;4.442;2023-08-17T02:12:30;1.52;;;0.60;;
82242;SDS011;71844;51.528;4.442;2023-08-17T02:14:57;1.83;;;0.90;;
82242;SDS011;71844;51.528;4.442;2023-08-17T02:17:24;1.50;;;0.80;;
82242;SDS011;71844;51.528;4.442;2023-08-17T02:19:51;3.03;;;0.80;;
82242;SDS011;71844;51.528;4.442;2023-08-17T02:22:18;3.35;;;1.08;;
82242;SDS011;71844;51.528;4.442;2023-08-17T02:24:48;2.72;;;0.65;;
82242;SDS011;71844;51.528;4.442;2023-08-17T02:27:14;3.55;;;0.95;;
82242;SDS011;71844;51.528;4.442;2023-08-17T02:29:41;3.08;;;1.00;;
82242;SDS011;71844;51.528;4.442;2023-08-17T02:32:08;1.33;;;0.60;;
82242;SDS011;71844;51.528;4.442;2023-08-17T02:34:35;1.58;;;0.70;;
82242;SDS011;71844;51.528;4.442;2023-08-17T02:37:02;1.15;;;0.52;;
82242;SDS011;71844;51.528;4.442;2023-08-17T02:39:29;1.45;;;0.80;;
82242;SDS011;71844;51.528;4.442;2023-08-17T02:41:56;1.90;;;0.75;;
82242;SDS011;71844;51.528;4.442;2023-08-17T02:44:22;2.30;;;0.80;;
82242;SDS011;71844;51.528;4.442;2023-08-17T02:46:49;1.52;;;0.70;;
82242;SDS011;71844;51.528;4.442;2023-08-17T02:49:16;1.52;;;0.60;;
82242;SDS011;71844;51.528;4.442;2023-08-17T02:51:43;1.67;;;0.85;;
82242;SDS011;71844;51.528;4.442;2023-08-17T02:54:10;1.75;;;0.82;;
82242;SDS011;71844;51.528;4.442;2023-08-17T02:56:37;1.92;;;0.80;;
82242;SDS011;71844;51.528;4.442;2023-08-17T02:59:03;1.70;;;0.70;;
82242;SDS011;71844;51.528;4.442;2023-08-17T03:01:30;3.17;;;1.08;;
82242;SDS011;71844;51.528;4.442;2023-08-17T03:03:58;1.77;;;0.82;;
82242;SDS011;71844;51.528;4.442;2023-08-17T03:06:25;1.17;;;0.70;;
82242;SDS011;71844;51.528;4.442;2023-08-17T03:08:52;2.53;;;0.90;;
82242;SDS011;71844;51.528;4.442;2023-08-17T03:11:20;1.45;;;0.90;;
82242;SDS011;71844;51.528;4.442;2023-08-17T03:13:47;3.10;;;0.75;;
82242;SDS011;71844;51.528;4.442;2023-08-17T03:16:15;3.08;;;0.85;;
82242;SDS011;71844;51.528;4.442;2023-08-17T03:18:42;1.73;;;0.88;;
82242;SDS011;71844;51.528;4.442;2023-08-17T03:21:11;1.95;;;0.70;;
82242;SDS011;71844;51.528;4.442;2023-08-17T03:23:38;0.80;;;0.40;;
82242;SDS011;71844;51.528;4.442;2023-08-17T03:26:05;2.97;;;0.80;;
82242;SDS011;71844;51.528;4.442;2023-08-17T03:28:32;1.63;;;0.82;;
82242;SDS011;71844;51.528;4.442;2023-08-17T03:30:58;1.77;;;0.95;;
82242;SDS011;71844;51.528;4.442;2023-08-17T03:33:25;1.40;;;0.80;;
82242;SDS011;71844;51.528;4.442;2023-08-17T03:35:52;1.77;;;0.88;;
82242;SDS011;71844;51.528;4.442;2023-08-17T03:38:19;2.55;;;1.00;;
82242;SDS011;71844;51.528;4.442;2023-08-17T03:40:46;1.48;;;0.90;;
82242;SDS011;71844;51.528;4.442;2023-08-17T03:43:14;1.52;;;0.57;;
82242;SDS011;71844;51.528;4.442;2023-08-17T03:45:41;1.60;;;0.80;;
82242;SDS011;71844;51.528;4.442;2023-08-17T03:48:09;3.22;;;1.10;;
82242;SDS011;71844;51.528;4.442;2023-08-17T03:50:36;1.38;;;0.80;;
82242;SDS011;71844;51.528;4.442;2023-08-17T03:53:03;3.05;;;0.80;;
82242;SDS011;71844;51.528;4.442;2023-08-17T03:55:30;3.63;;;0.90;;
82242;SDS011;71844;51.528;4.442;2023-08-17T03:57:57;1.20;;;0.70;;
82242;SDS011;71844;51.528;4.442;2023-08-17T04:00:24;1.90;;;0.88;;
82242;SDS011;71844;51.528;4.442;2023-08-17T04:02:51;2.53;;;0.82;;
82242;SDS011;71844;51.528;4.442;2023-08-17T04:05:17;1.63;;;0.85;;
82242;SDS011;71844;51.528;4.442;2023-08-17T04:07:44;2.67;;;0.70;;
82242;SDS011;71844;51.528;4.442;2023-08-17T04:10:11;2.17;;;0.80;;
82242;SDS011;71844;51.528;4.442;2023-08-17T04:12:38;1.73;;;0.82;;
82242;SDS011;71844;51.528;4.442;2023-08-17T04:15:05;2.58;;;0.80;;
82242;SDS011;71844;51.528;4.442;2023-08-17T04:17:32;1.23;;;0.70;;
82242;SDS011;71844;51.528;4.442;2023-08-17T04:19:59;2.67;;;0.88;;
82242;SDS011;71844;51.528;4.442;2023-08-17T04:22:26;1.45;;;0.70;;
82242;SDS011;71844;51.528;4.442;2023-08-17T04:24:53;2.60;;;0.82;;
82242;SDS011;71844;51.528;4.442;2023-08-17T04:27:20;1.08;;;0.70;;
82242;SDS011;71844;51.528;4.442;2023-08-17T04:29:47;1.77;;;0.90;;
82242;SDS011;71844;51.528;4.442;2023-08-17T04:32:14;3.03;;;0.85;;
82242;SDS011;71844;51.528;4.442;2023-08-17T04:34:42;1.77;;;0.73;;
82242;SDS011;71844;51.528;4.442;2023-08-17T04:37:11;1.65;;;0.80;;
82242;SDS011;71844;51.528;4.442;2023-08-17T04:39:38;2.15;;;0.68;;
82242;SDS011;71844;51.528;4.442;2023-08-17T04:42:05;1.73;;;0.80;;
82242;SDS011;71844;51.528;4.442;2023-08-17T04:44:32;2.83;;;1.00;;
82242;SDS011;71844;51.528;4.442;2023-08-17T04:46:59;2.65;;;0.95;;
82242;SDS011;71844;51.528;4.442;2023-08-17T04:49:26;1.60;;;0.70;;
82242;SDS011;71844;51.528;4.442;2023-08-17T04:51:53;2.10;;;0.80;;
82242;SDS011;71844;51.528;4.442;2023-08-17T04:54:20;1.95;;;1.00;;
82242;SDS011;71844;51.528;4.442;2023-08-17T04:56:47;2.35;;;0.90;;
82242;SDS011;71844;51.528;4.442;2023-08-17T04:59:14;1.63;;;0.95;;
82242;SDS011;71844;51.528;4.442;2023-08-17T05:01:40;1.52;;;0.75;;
82242;SDS011;71844;51.528;4.442;2023-08-17T05:04:08;1.33;;;0.75;;
82242;SDS011;71844;51.528;4.442;2023-08-17T05:06:35;1.58;;;0.77;;
82242;SDS011;71844;51.528;4.442;2023-08-17T05:09:03;1.50;;;0.77;;
82242;SDS011;71844;51.528;4.442;2023-08-17T05:11:32;1.90;;;0.70;;
82242;SDS011;71844;51.528;4.442;2023-08-17T05:13:59;1.40;;;0.77;;
82242;SDS011;71844;51.528;4.442;2023-08-17T05:16:26;1.75;;;0.73;;
82242;SDS011;71844;51.528;4.442;2023-08-17T05:18:53;2.35;;;0.85;;
82242;SDS011;71844;51.528;4.442;2023-08-17T05:21:19;2.63;;;0.93;;
82242;SDS011;71844;51.528;4.442;2023-08-17T05:24:01;1.65;;;0.82;;
82242;SDS011;71844;51.528;4.442;2023-08-17T05:26:27;2.28;;;0.82;;
82242;SDS011;71844;51.528;4.442;2023-08-17T05:28:54;1.40;;;0.80;;
82242;SDS011;71844;51.528;4.442;2023-08-17T05:31:21;3.08;;;1.00;;
82242;SDS011;71844;51.528;4.442;2023-08-17T05:33:48;1.77;;;1.13;;
82242;SDS011;71844;51.528;4.442;2023-08-17T05:36:15;3.33;;;1.38;;
82242;SDS011;71844;51.528;4.442;2023-08-17T05:38:41;4.20;;;0.98;;
82242;SDS011;71844;51.528;4.442;2023-08-17T05:41:08;3.22;;;0.88;;
82242;SDS011;71844;51.528;4.442;2023-08-17T05:43:35;1.65;;;0.93;;
82242;SDS011;71844;51.528;4.442;2023-08-17T05:46:02;3.10;;;1.10;;
82242;SDS011;71844;51.528;4.442;2023-08-17T05:48:29;2.60;;;1.00;;
82242;SDS011;71844;51.528;4.442;2023-08-17T05:50:56;4.07;;;1.23;;
82242;SDS011;71844;51.528;4.442;2023-08-17T05:53:23;1.75;;;0.70;;
82242;SDS011;71844;51.528;4.442;2023-08-17T05:55:50;1.98;;;1.02;;
82242;SDS011;71844;51.528;4.442;2023-08-17T05:58:17;2.63;;;0.93;;
82242;SDS011;71844;51.528;4.442;2023-08-17T06:00:44;1.85;;;0.65;;
82242;SDS011;71844;51.528;4.442;2023-08-17T06:03:11;2.28;;;0.68;;
82242;SDS011;71844;51.528;4.442;2023-08-17T06:05:39;3.60;;;0.90;;
82242;SDS011;71844;51.528;4.442;2023-08-17T06:08:06;1.75;;;0.80;;
82242;SDS011;71844;51.528;4.442;2023-08-17T06:10:33;3.08;;;0.90;;
82242;SDS011;71844;51.528;4.442;2023-08-17T06:12:59;2.08;;;0.77;;
82242;SDS011;71844;51.528;4.442;2023-08-17T06:15:26;1.35;;;0.63;;
82242;SDS011;71844;51.528;4.442;2023-08-17T06:17:53;1.13;;;0.60;;
82242;SDS011;71844;51.528;4.442;2023-08-17T06:20:20;1.65;;;0.90;;
82242;SDS011;71844;51.528;4.442;2023-08-17T06:22:48;1.55;;;1.00;;
82242;SDS011;71844;51.528;4.442;2023-08-17T06:25:17;2.40;;;0.90;;
82242;SDS011;71844;51.528;4.442;2023-08-17T06:27:44;2.80;;;0.95;;
82242;SDS011;71844;51.528;4.442;2023-08-17T06:30:11;2.22;;;0.60;;
82242;SDS011;71844;51.528;4.442;2023-08-17T06:32:39;3.17;;;1.35;;
82242;SDS011;71844;51.528;4.442;2023-08-17T06:35:06;1.83;;;0.70;;
82242;SDS011;71844;51.528;4.442;2023-08-17T06:37:33;1.50;;;0.90;;
82242;SDS011;71844;51.528;4.442;2023-08-17T06:40:01;1.88;;;0.90;;
82242;SDS011;71844;51.528;4.442;2023-08-17T06:42:28;2.15;;;1.30;;
82242;SDS011;71844;51.528;4.442;2023-08-17T06:44:55;2.42;;;0.90;;
82242;SDS011;71844;51.528;4.442;2023-08-17T06:47:22;1.63;;;0.90;;
82242;SDS011;71844;51.528;4.442;2023-08-17T06:49:50;2.38;;;0.82;;
82242;SDS011;71844;51.528;4.442;2023-08-17T06:52:16;2.38;;;1.10;;
82242;SDS011;71844;51.528;4.442;2023-08-17T06:54:43;1.38;;;0.75;;
82242;SDS011;71844;51.528;4.442;2023-08-17T06:57:10;1.20;;;0.50;;
82242;SDS011;71844;51.528;4.442;2023-08-17T06:59:37;2.40;;;0.90;;
82242;SDS011;71844;51.528;4.442;2023-08-17T07:02:04;2.40;;;0.80;;
82242;SDS011;71844;51.528;4.442;2023-08-17T07:04:31;2.15;;;1.00;;
82242;SDS011;71844;51.528;4.442;2023-08-17T07:06:59;2.95;;;0.90;;
82242;SDS011;71844;51.528;4.442;2023-08-17T07:09:25;1.52;;;0.80;;
82242;SDS011;71844;51.528;4.442;2023-08-17T07:11:54;2.35;;;0.93;;
82242;SDS011;71844;51.528;4.442;2023-08-17T07:14:21;2.50;;;1.20;;
82242;SDS011;71844;51.528;4.442;2023-08-17T07:16:48;2.75;;;0.73;;
82242;SDS011;71844;51.528;4.442;2023-08-17T07:19:15;2.10;;;0.80;;
82242;SDS011;71844;51.528;4.442;2023-08-17T07:21:42;1.75;;;0.98;;
82242;SDS011;71844;51.528;4.442;2023-08-17T07:24:12;2.53;;;0.80;;
82242;SDS011;71844;51.528;4.442;2023-08-17T07:26:40;1.90;;;0.85;;
82242;SDS011;71844;51.528;4.442;2023-08-17T07:29:07;3.33;;;0.80;;
82242;SDS011;71844;51.528;4.442;2023-08-17T07:31:34;1.52;;;0.77;;
82242;SDS011;71844;51.528;4.442;2023-08-17T07:36:34;3.35;;;0.60;;
82242;SDS011;71844;51.528;4.442;2023-08-17T07:39:01;3.22;;;0.90;;
82242;SDS011;71844;51.528;4.442;2023-08-17T07:41:27;2.10;;;0.98;;
82242;SDS011;71844;51.528;4.442;2023-08-17T07:43:54;3.47;;;1.10;;
82242;SDS011;71844;51.528;4.442;2023-08-17T07:46:21;2.08;;;0.80;;
82242;SDS011;71844;51.528;4.442;2023-08-17T07:48:48;1.88;;;0.98;;
82242;SDS011;71844;51.528;4.442;2023-08-17T07:51:15;3.50;;;0.90;;
82242;SDS011;71844;51.528;4.442;2023-08-17T07:53:42;2.08;;;0.63;;
82242;SDS011;71844;51.528;4.442;2023-08-17T07:56:09;1.58;;;0.90;;
82242;SDS011;71844;51.528;4.442;2023-08-17T07:58:36;3.67;;;0.77;;
82242;SDS011;71844;51.528;4.442;2023-08-17T08:01:03;2.35;;;0.95;;
82242;SDS011;71844;51.528;4.442;2023-08-17T08:03:30;2.00;;;1.02;;
82242;SDS011;71844;51.528;4.442;2023-08-17T08:05:57;3.22;;;0.90;;
82242;SDS011;71844;51.528;4.442;2023-08-17T08:08:24;2.92;;;1.73;;
82242;SDS011;71844;51.528;4.442;2023-08-17T08:10:52;1.83;;;0.80;;
82242;SDS011;71844;51.528;4.442;2023-08-17T08:13:20;3.88;;;1.13;;
82242;SDS011;71844;51.528;4.442;2023-08-17T08:15:47;2.75;;;0.60;;
82242;SDS011;71844;51.528;4.442;2023-08-17T08:18:14;2.42;;;0.80;;
82242;SDS011;71844;51.528;4.442;2023-08-17T08:20:41;1.63;;;0.88;;
82242;SDS011;71844;51.528;4.442;2023-08-17T08:23:07;1.80;;;0.70;;
82242;SDS011;71844;51.528;4.442;2023-08-17T08:25:34;2.38;;;0.70;;
82242;SDS011;71844;51.528;4.442;2023-08-17T08:28:01;2.90;;;0.80;;
82242;SDS011;71844;51.528;4.442;2023-08-17T08:30:28;1.30;;;0.43;;
82242;SDS011;71844;51.528;4.442;2023-08-17T08:32:55;2.30;;;0.90;;
82242;SDS011;71844;51.528;4.442;2023-08-17T08:37:51;2.22;;;0.70;;
82242;SDS011;71844;51.528;4.442;2023-08-17T08:40:18;2.10;;;0.70;;
82242;SDS011;71844;51.528;4.442;2023-08-17T08:42:46;4.07;;;0.75;;
82242;SDS011;71844;51.528;4.442;2023-08-17T08:45:13;2.55;;;0.75;;
82242;SDS011;71844;51.528;4.442;2023-08-17T08:47:40;1.90;;;0.50;;
82242;SDS011;71844;51.528;4.442;2023-08-17T08:50:10;2.50;;;0.80;;
82242;SDS011;71844;51.528;4.442;2023-08-17T08:52:53;2.03;;;0.70;;
82242;SDS011;71844;51.528;4.442;2023-08-17T08:55:27;2.30;;;0.93;;
82242;SDS011;71844;51.528;4.442;2023-08-17T08:57:56;2.40;;;0.82;;
82242;SDS011;71844;51.528;4.442;2023-08-17T09:00:24;2.28;;;0.80;;
82242;SDS011;71844;51.528;4.442;2023-08-17T09:02:52;2.42;;;0.88;;
82242;SDS011;71844;51.528;4.442;2023-08-17T09:05:20;3.35;;;0.80;;
82242;SDS011;71844;51.528;4.442;2023-08-17T09:07:48;3.45;;;0.75;;
82242;SDS011;71844;51.528;4.442;2023-08-17T09:10:16;2.17;;;0.80;;
82242;SDS011;71844;51.528;4.442;2023-08-17T09:12:45;2.05;;;0.82;;
82242;SDS011;71844;51.528;4.442;2023-08-17T09:15:14;2.60;;;0.80;;
82242;SDS011;71844;51.528;4.442;2023-08-17T09:17:41;2.55;;;0.85;;
82242;SDS011;71844;51.528;4.442;2023-08-17T09:20:09;1.75;;;0.98;;
82242;SDS011;71844;51.528;4.442;2023-08-17T09:55:25;1.98;;;0.90;;
82242;SDS011;71844;51.528;4.442;2023-08-17T09:57:52;3.00;;;0.80;;
82242;SDS011;71844;51.528;4.442;2023-08-17T10:00:20;2.10;;;0.80;;
82242;SDS011;71844;51.528;4.442;2023-08-17T10:02:50;1.80;;;0.70;;
82242;SDS011;71844;51.528;4.442;2023-08-17T10:05:18;3.05;;;0.75;;
82242;SDS011;71844;51.528;4.442;2023-08-17T10:07:53;2.70;;;0.90;;
82242;SDS011;71844;51.528;4.442;2023-08-17T10:10:26;2.33;;;1.10;;
82242;SDS011;71844;51.528;4.442;2023-08-17T10:16:03;3.88;;;1.05;;
82242;SDS011;71844;51.528;4.442;2023-08-17T10:19:24;2.78;;;1.10;;
82242;SDS011;71844;51.528;4.442;2023-08-17T10:24:37;2.95;;;1.20;;
82242;SDS011;71844;51.528;4.442;2023-08-17T10:27:06;3.90;;;1.27;;
82242;SDS011;71844;51.528;4.442;2023-08-17T10:29:33;2.53;;;1.05;;
82242;SDS011;71844;51.528;4.442;2023-08-17T10:34:29;3.08;;;1.40;;
82242;SDS011;71844;51.528;4.442;2023-08-17T10:36:56;3.22;;;1.70;;
82242;SDS011;71844;51.528;4.442;2023-08-17T10:39:26;2.58;;;1.27;;
82242;SDS011;71844;51.528;4.442;2023-08-17T10:41:58;3.00;;;1.10;;
82242;SDS011;71844;51.528;4.442;2023-08-17T10:44:44;2.63;;;1.05;;
82242;SDS011;71844;51.528;4.442;2023-08-17T10:47:22;2.67;;;1.33;;
82242;SDS011;71844;51.528;4.442;2023-08-17T10:50:06;3.97;;;1.38;;
82242;SDS011;71844;51.528;4.442;2023-08-17T10:52:50;2.60;;;1.42;;
82242;SDS011;71844;51.528;4.442;2023-08-17T10:55:34;3.15;;;1.20;;
82242;SDS011;71844;51.528;4.442;2023-08-17T10:58:03;3.17;;;1.55;;
82242;SDS011;71844;51.528;4.442;2023-08-17T11:00:37;3.05;;;1.17;;
82242;SDS011;71844;51.528;4.442;2023-08-17T11:03:17;2.20;;;1.40;;
82242;SDS011;71844;51.528;4.442;2023-08-17T11:05:50;1.88;;;1.35;;
82242;SDS011;71844;51.528;4.442;2023-08-17T11:08:23;3.90;;;1.58;;
82242;SDS011;71844;51.528;4.442;2023-08-17T11:11:09;3.72;;;1.55;;
82242;SDS011;71844;51.528;4.442;2023-08-17T11:13:41;3.85;;;1.13;;
82242;SDS011;71844;51.528;4.442;2023-08-17T11:18:40;3.05;;;1.52;;
82242;SDS011;71844;51.528;4.442;2023-08-17T11:21:13;2.75;;;1.65;;
82242;SDS011;71844;51.528;4.442;2023-08-17T11:23:45;3.85;;;1.80;;
82242;SDS011;71844;51.528;4.442;2023-08-17T11:26:15;3.75;;;1.92;;
82242;SDS011;71844;51.528;4.442;2023-08-17T11:28:43;2.30;;;1.67;;
82242;SDS011;71844;51.528;4.442;2023-08-17T11:31:11;2.35;;;1.40;;
82242;SDS011;71844;51.528;4.442;2023-08-17T11:33:41;3.28;;;1.80;;
82242;SDS011;71844;51.528;4.442;2023-08-17T11:36:08;3.58;;;1.70;;
82242;SDS011;71844;51.528;4.442;2023-08-17T11:38:38;3.63;;;1.73;;
82242;SDS011;71844;51.528;4.442;2023-08-17T11:41:06;3.50;;;1.85;;
82242;SDS011;71844;51.528;4.442;2023-08-17T11:43:35;3.30;;;2.03;;
82242;SDS011;71844;51.528;4.442;2023-08-17T11:46:03;3.33;;;1.67;;
82242;SDS011;71844;51.528;4.442;2023-08-17T11:48:31;2.33;;;1.65;;
82242;SDS011;71844;51.528;4.442;2023-08-17T11:51:01;3.75;;;1.75;;
82242;SDS011;71844;51.528;4.442;2023-08-17T11:53:35;3.00;;;1.77;;
82242;SDS011;71844;51.528;4.442;2023-08-17T11:56:03;3.92;;;1.83;;
82242;SDS011;71844;51.528;4.442;2023-08-17T11:58:47;3.97;;;1.90;;
82242;SDS011;71844;51.528;4.442;2023-08-17T12:01:14;2.38;;;1.40;;
82242;SDS011;71844;51.528;4.442;2023-08-17T12:03:45;3.95;;;1.90;;
82242;SDS011;71844;51.528;4.442;2023-08-17T12:06:16;3.30;;;1.65;;
82242;SDS011;71844;51.528;4.442;2023-08-17T12:08:44;2.90;;;1.60;;
82242;SDS011;71844;51.528;4.442;2023-08-17T12:11:15;3.17;;;1.70;;
82242;SDS011;71844;51.528;4.442;2023-08-17T12:13:50;3.75;;;2.03;;
82242;SDS011;71844;51.528;4.442;2023-08-17T12:16:19;2.97;;;1.75;;
82242;SDS011;71844;51.528;4.442;2023-08-17T12:18:50;2.45;;;1.58;;
82242;SDS011;71844;51.528;4.442;2023-08-17T12:21:21;4.25;;;2.10;;
82242;SDS011;71844;51.528;4.442;2023-08-17T12:23:49;4.45;;;2.30;;
82242;SDS011;71844;51.528;4.442;2023-08-17T12:26:22;4.13;;;2.30;;
82242;SDS011;71844;51.528;4.442;2023-08-17T12:28:49;4.35;;;2.50;;
82242;SDS011;71844;51.528;4.442;2023-08-17T12:31:20;3.45;;;2.20;;
82242;SDS011;71844;51.528;4.442;2023-08-17T12:33:49;5.18;;;2.53;;
82242;SDS011;71844;51.528;4.442;2023-08-17T12:36:16;3.53;;;2.15;;
82242;SDS011;71844;51.528;4.442;2023-08-17T12:38:49;3.80;;;2.38;;
82242;SDS011;71844;51.528;4.442;2023-08-17T12:41:16;7.00;;;2.50;;
82242;SDS011;71844;51.528;4.442;2023-08-17T12:43:44;4.57;;;2.60;;
82242;SDS011;71844;51.528;4.442;2023-08-17T12:46:11;5.43;;;2.20;;
82242;SDS011;71844;51.528;4.442;2023-08-17T12:48:38;4.55;;;2.20;;
82242;SDS011;71844;51.528;4.442;2023-08-17T12:51:05;4.40;;;2.40;;
82242;SDS011;71844;51.528;4.442;2023-08-17T12:53:32;5.07;;;1.90;;
82242;SDS011;71844;51.528;4.442;2023-08-17T12:55:59;5.28;;;2.30;;
82242;SDS011;71844;51.528;4.442;2023-08-17T12:58:26;4.60;;;2.45;;
82242;SDS011;71844;51.528;4.442;2023-08-17T13:00:53;4.75;;;2.72;;
82242;SDS011;71844;51.528;4.442;2023-08-17T13:03:21;4.03;;;2.47;;
82242;SDS011;71844;51.528;4.442;2023-08-17T13:05:48;5.32;;;2.60;;
82242;SDS011;71844;51.528;4.442;2023-08-17T13:08:15;4.03;;;2.55;;
82242;SDS011;71844;51.528;4.442;2023-08-17T13:10:42;5.03;;;2.70;;
82242;SDS011;71844;51.528;4.442;2023-08-17T13:13:09;6.68;;;2.70;;
82242;SDS011;71844;51.528;4.442;2023-08-17T13:15:35;5.07;;;2.50;;
82242;SDS011;71844;51.528;4.442;2023-08-17T13:18:02;6.47;;;2.85;;
82242;SDS011;71844;51.528;4.442;2023-08-17T13:20:30;5.93;;;3.05;;
82242;SDS011;71844;51.528;4.442;2023-08-17T13:22:57;6.10;;;2.83;;
82242;SDS011;71844;51.528;4.442;2023-08-17T13:25:24;6.05;;;2.72;;
82242;SDS011;71844;51.528;4.442;2023-08-17T13:27:51;8.02;;;3.00;;
82242;SDS011;71844;51.528;4.442;2023-08-17T13:30:18;7.20;;;3.10;;
82242;SDS011;71844;51.528;4.442;2023-08-17T13:32:45;5.75;;;3.53;;
82242;SDS011;71844;51.528;4.442;2023-08-17T13:35:13;6.43;;;3.13;;
82242;SDS011;71844;51.528;4.442;2023-08-17T13:37:40;4.90;;;2.83;;
82242;SDS011;71844;51.528;4.442;2023-08-17T13:40:07;5.47;;;2.28;;
82242;SDS011;71844;51.528;4.442;2023-08-17T13:42:35;4.65;;;2.22;;
82242;SDS011;71844;51.528;4.442;2023-08-17T13:45:03;7.82;;;3.85;;
82242;SDS011;71844;51.528;4.442;2023-08-17T13:47:30;5.60;;;3.25;;
82242;SDS011;71844;51.528;4.442;2023-08-17T13:49:57;4.75;;;3.30;;
82242;SDS011;71844;51.528;4.442;2023-08-17T13:52:24;7.35;;;3.10;;
82242;SDS011;71844;51.528;4.442;2023-08-17T13:54:52;4.50;;;2.97;;
82242;SDS011;71844;51.528;4.442;2023-08-17T13:57:19;5.95;;;3.03;;
82242;SDS011;71844;51.528;4.442;2023-08-17T13:59:46;4.68;;;3.00;;
82242;SDS011;71844;51.528;4.442;2023-08-17T14:02:13;10.95;;;3.55;;
82242;SDS011;71844;51.528;4.442;2023-08-17T14:04:39;5.47;;;3.17;;
82242;SDS011;71844;51.528;4.442;2023-08-17T14:07:06;6.40;;;3.17;;
82242;SDS011;71844;51.528;4.442;2023-08-17T14:09:33;6.20;;;3.22;;
82242;SDS011;71844;51.528;4.442;2023-08-17T14:12:00;6.20;;;3.17;;
82242;SDS011;71844;51.528;4.442;2023-08-17T14:14:28;6.90;;;3.55;;
82242;SDS011;71844;51.528;4.442;2023-08-17T14:16:55;6.65;;;3.17;;
82242;SDS011;71844;51.528;4.442;2023-08-17T14:19:21;5.50;;;3.17;;
82242;SDS011;71844;51.528;4.442;2023-08-17T14:21:49;5.35;;;2.67;;
82242;SDS011;71844;51.528;4.442;2023-08-17T14:24:15;5.15;;;3.33;;
82242;SDS011;71844;51.528;4.442;2023-08-17T14:26:43;6.43;;;3.05;;
82242;SDS011;71844;51.528;4.442;2023-08-17T14:29:09;7.22;;;3.42;;
82242;SDS011;71844;51.528;4.442;2023-08-17T14:31:36;4.85;;;2.90;;
82242;SDS011;71844;51.528;4.442;2023-08-17T14:34:03;5.50;;;3.33;;
82242;SDS011;71844;51.528;4.442;2023-08-17T14:36:32;4.88;;;3.17;;
82242;SDS011;71844;51.528;4.442;2023-08-17T14:38:59;7.82;;;3.80;;
82242;SDS011;71844;51.528;4.442;2023-08-17T14:41:26;7.55;;;4.10;;
82242;SDS011;71844;51.528;4.442;2023-08-17T14:43:58;5.95;;;3.63;;
82242;SDS011;71844;51.528;4.442;2023-08-17T14:46:28;6.07;;;3.70;;
82242;SDS011;71844;51.528;4.442;2023-08-17T14:48:56;6.53;;;3.63;;
82242;SDS011;71844;51.528;4.442;2023-08-17T14:51:24;5.88;;;3.45;;
82242;SDS011;71844;51.528;4.442;2023-08-17T14:53:56;5.07;;;3.10;;
82242;SDS011;71844;51.528;4.442;2023-08-17T14:56:23;7.00;;;3.53;;
82242;SDS011;71844;51.528;4.442;2023-08-17T14:58:50;5.95;;;3.40;;
82242;SDS011;71844;51.528;4.442;2023-08-17T15:01:17;5.25;;;3.53;;
82242;SDS011;71844;51.528;4.442;2023-08-17T15:03:44;6.05;;;3.80;;
82242;SDS011;71844;51.528;4.442;2023-08-17T15:06:12;6.88;;;3.65;;
82242;SDS011;71844;51.528;4.442;2023-08-17T15:08:57;6.38;;;3.60;;
82242;SDS011;71844;51.528;4.442;2023-08-17T15:11:24;6.47;;;3.60;;
82242;SDS011;71844;51.528;4.442;2023-08-17T15:13:50;6.55;;;3.80;;
82242;SDS011;71844;51.528;4.442;2023-08-17T15:16:17;6.15;;;4.00;;
82242;SDS011;71844;51.528;4.442;2023-08-17T15:18:51;5.95;;;3.72;;
82242;SDS011;71844;51.528;4.442;2023-08-17T15:21:18;6.88;;;3.95;;
82242;SDS011;71844;51.528;4.442;2023-08-17T15:23:45;6.57;;;3.53;;
82242;SDS011;71844;51.528;4.442;2023-08-17T15:26:12;6.20;;;3.50;;
82242;SDS011;71844;51.528;4.442;2023-08-17T15:28:40;6.97;;;3.60;;
82242;SDS011;71844;51.528;4.442;2023-08-17T15:31:07;6.53;;;4.10;;
82242;SDS011;71844;51.528;4.442;2023-08-17T15:33:43;5.10;;;3.40;;
82242;SDS011;71844;51.528;4.442;2023-08-17T15:36:10;6.78;;;4.05;;
82242;SDS011;71844;51.528;4.442;2023-08-17T15:38:37;7.57;;;4.00;;
82242;SDS011;71844;51.528;4.442;2023-08-17T15:41:03;5.57;;;3.40;;
82242;SDS011;71844;51.528;4.442;2023-08-17T15:43:30;6.85;;;3.97;;
82242;SDS011;71844;51.528;4.442;2023-08-17T15:45:57;6.93;;;4.32;;
82242;SDS011;71844;51.528;4.442;2023-08-17T15:48:24;8.48;;;4.65;;
82242;SDS011;71844;51.528;4.442;2023-08-17T15:50:51;7.40;;;3.88;;
82242;SDS011;71844;51.528;4.442;2023-08-17T15:53:18;7.20;;;3.55;;
82242;SDS011;71844;51.528;4.442;2023-08-17T15:55:45;4.93;;;3.35;;
82242;SDS011;71844;51.528;4.442;2023-08-17T15:58:12;5.82;;;4.07;;
82242;SDS011;71844;51.528;4.442;2023-08-17T16:00:39;7.50;;;3.72;;
82242;SDS011;71844;51.528;4.442;2023-08-17T16:03:07;5.70;;;3.30;;
82242;SDS011;71844;51.528;4.442;2023-08-17T16:05:38;6.28;;;3.72;;
82242;SDS011;71844;51.528;4.442;2023-08-17T16:08:05;6.47;;;3.63;;
82242;SDS011;71844;51.528;4.442;2023-08-17T16:10:33;6.35;;;3.45;;
82242;SDS011;71844;51.528;4.442;2023-08-17T16:13:01;7.43;;;3.80;;
82242;SDS011;71844;51.528;4.442;2023-08-17T16:15:28;6.53;;;3.38;;
82242;SDS011;71844;51.528;4.442;2023-08-17T16:17:55;5.65;;;3.67;;
82242;SDS011;71844;51.528;4.442;2023-08-17T16:20:26;6.10;;;3.70;;
82242;SDS011;71844;51.528;4.442;2023-08-17T16:25:22;8.07;;;3.55;;
82242;SDS011;71844;51.528;4.442;2023-08-17T16:27:55;5.35;;;3.45;;
82242;SDS011;71844;51.528;4.442;2023-08-17T16:30:22;8.07;;;3.97;;
82242;SDS011;71844;51.528;4.442;2023-08-17T16:32:49;5.68;;;3.35;;
82242;SDS011;71844;51.528;4.442;2023-08-17T16:35:16;5.95;;;3.92;;
82242;SDS011;71844;51.528;4.442;2023-08-17T16:37:43;6.90;;;3.72;;
82242;SDS011;71844;51.528;4.442;2023-08-17T16:40:10;6.35;;;3.92;;
82242;SDS011;71844;51.528;4.442;2023-08-17T16:42:53;6.72;;;3.78;;
82242;SDS011;71844;51.528;4.442;2023-08-17T16:45:25;7.55;;;3.63;;
82242;SDS011;71844;51.528;4.442;2023-08-17T16:47:52;6.80;;;4.25;;
82242;SDS011;71844;51.528;4.442;2023-08-17T16:50:19;5.97;;;3.85;;
82242;SDS011;71844;51.528;4.442;2023-08-17T16:52:46;7.43;;;3.75;;
82242;SDS011;71844;51.528;4.442;2023-08-17T16:55:13;5.45;;;3.53;;